Time;durP1;ratioP1;P1;durP2;ratioP2;P2;SDS_P1;SDS_P2;PMS_P1;PMS_P2;Temp;Humidity;BMP_temperature;BMP_pressure;BME280_temperature;BME280_humidity;BME280_pressure;Samples;Min_cycle;Max_cycle;Signal;HPM_P1;HPM_P2
2023/07/01 00:01:31;;;;;;;8.35;5.15;;;;;;;18.00;91.75;64867.28;5011904;28;20681;-58
2023/07/01 00:04:15;;;;;;;6.80;5.05;;;;;;;18.00;90.72;64864.75;5011799;28;20265;-60
2023/07/01 00:06:43;;;;;;;6.75;4.72;;;;;;;18.00;91.48;64867.28;4994120;28;20209;-60
2023/07/01 00:09:10;;;;;;;6.72;5.10;;;;;;;17.94;91.76;64860.69;5011591;28;20206;-61
2023/07/01 00:11:36;;;;;;;5.40;4.90;;;;;;;17.81;93.34;64843.81;5011591;28;20221;-57
2023/07/01 00:14:02;;;;;;;7.13;5.15;;;;;;;17.86;93.25;64854.41;5011404;28;20213;-58
2023/07/01 00:16:27;;;;;;;5.57;4.60;;;;;;;17.76;93.79;64840.84;5011456;28;20269;-57
2023/07/01 00:18:53;;;;;;;5.28;4.78;;;;;;;17.77;94.33;64841.94;5011297;28;20206;-58
2023/07/01 00:21:18;;;;;;;7.40;5.10;;;;;;;17.75;94.87;64839.19;5011461;28;20281;-58
2023/07/01 00:23:44;;;;;;;6.55;4.95;;;;;;;17.71;95.40;64834.78;5011383;28;20297;-57
2023/07/01 00:26:09;;;;;;;5.97;5.25;;;;;;;17.54;96.58;64817.16;5011681;28;20185;-56
2023/07/01 00:28:35;;;;;;;6.75;5.55;;;;;;;17.30;98.58;64790.13;5011337;28;20210;-60
2023/07/01 00:31:00;;;;;;;6.53;5.75;;;;;;;17.23;99.38;64782.41;5010679;28;20226;-61
2023/07/01 00:33:26;;;;;;;6.95;5.55;;;;;;;17.35;98.93;64793.09;5011138;28;20225;-57
2023/07/01 00:35:51;;;;;;;6.25;5.68;;;;;;;17.24;99.21;64783.50;5009990;28;20203;-59
2023/07/01 00:38:16;;;;;;;5.72;5.18;;;;;;;17.20;99.88;64777.09;5011026;28;20763;-57
2023/07/01 00:40:42;;;;;;;5.78;5.18;;;;;;;17.19;99.58;64776.00;5011256;28;20719;-58
2023/07/01 00:43:07;;;;;;;6.38;5.38;;;;;;;17.16;100.00;64772.16;5011035;28;20780;-57
2023/07/01 00:45:33;;;;;;;6.30;5.70;;;;;;;17.25;99.75;64782.59;5011058;28;20205;-58
2023/07/01 00:47:58;;;;;;;6.53;4.95;;;;;;;17.24;99.87;64781.50;4993291;28;20206;-60
2023/07/01 00:50:24;;;;;;;6.88;5.63;;;;;;;17.14;100.00;64772.50;5011345;28;20225;-61
2023/07/01 00:52:50;;;;;;;8.15;5.35;;;;;;;17.17;100.00;64773.25;5010868;28;20217;-61
2023/07/01 00:55:15;;;;;;;8.20;5.53;;;;;;;17.14;100.00;64773.03;5010853;28;20195;-62
2023/07/01 00:57:40;;;;;;;6.10;5.50;;;;;;;17.09;100.00;64764.44;5010768;28;20706;-61
2023/07/01 01:00:11;;;;;;;7.47;5.78;;;;;;;17.21;100.00;64780.22;4993621;28;20211;-61
2023/07/01 01:02:51;;;;;;;6.43;5.82;;;;;;;17.14;100.00;64767.41;4993174;28;20693;-61
2023/07/01 01:05:23;;;;;;;7.80;6.05;;;;;;;17.20;100.00;64774.00;4995285;28;20317;-62
2023/07/01 01:08:03;;;;;;;6.10;4.75;;;;;;;17.27;100.00;64787.34;5014153;28;20723;-63
2023/07/01 01:10:32;;;;;;;6.30;5.47;;;;;;;17.33;100.00;64793.97;5014557;28;20209;-61
2023/07/01 01:12:58;;;;;;;7.57;5.38;;;;;;;17.16;100.00;64775.25;5014084;28;20642;-56
2023/07/01 01:15:26;;;;;;;6.32;5.57;;;;;;;17.24;100.00;64784.06;5014477;28;20218;-60
2023/07/01 01:17:55;;;;;;;7.35;5.53;;;;;;;17.15;100.00;64774.13;5014041;28;20261;-59
2023/07/01 01:20:22;;;;;;;6.50;4.85;;;;;;;17.13;100.00;64769.38;5014477;28;20210;-57
2023/07/01 01:23:02;;;;;;;7.63;5.68;;;;;;;17.13;100.00;64769.38;5014328;28;20228;-58
2023/07/01 01:25:43;;;;;;;8.77;5.30;;;;;;;17.01;100.00;64755.63;5014366;28;20298;-57
2023/07/01 01:28:09;;;;;;;7.70;5.60;;;;;;;16.99;100.00;64755.97;5014103;28;20237;-57
2023/07/01 01:30:35;;;;;;;6.15;4.78;;;;;;;16.86;100.00;64739.09;4996308;28;20203;-60
2023/07/01 01:33:02;;;;;;;6.22;5.15;;;;;;;16.74;100.00;64729.53;5013940;28;20219;-56
2023/07/01 01:35:27;;;;;;;6.65;5.15;;;;;;;16.59;100.00;64710.47;5014282;28;20344;-57
2023/07/01 01:38:33;;;;;;;7.70;4.80;;;;;;;16.66;100.00;64720.72;5013755;28;20238;-58
2023/07/01 01:41:30;;;;;;;5.93;5.18;;;;;;;16.60;100.00;64711.56;5011258;28;20335;-59
2023/07/01 01:44:03;;;;;;;5.70;5.03;;;;;;;16.62;100.00;64713.75;5013665;28;20257;-58
2023/07/01 01:46:31;;;;;;;5.57;4.95;;;;;;;16.73;100.00;64725.34;5013734;28;20701;-57
2023/07/01 01:49:02;;;;;;;6.45;5.32;;;;;;;16.66;100.00;64720.72;5013478;28;20202;-58
2023/07/01 01:51:28;;;;;;;7.60;5.78;;;;;;;16.70;100.00;64720.03;5013560;28;20353;-58
2023/07/01 01:53:56;;;;;;;9.00;5.60;;;;;;;16.79;100.00;64734.47;5013655;28;20272;-56
2023/07/01 01:56:23;;;;;;;5.40;4.80;;;;;;;16.78;100.00;64730.84;5013867;28;20215;-57
2023/07/01 01:58:48;;;;;;;5.82;5.07;;;;;;;16.72;100.00;64729.31;5013425;28;20207;-58
2023/07/01 02:01:15;;;;;;;6.13;5.53;;;;;;;16.70;100.00;64722.56;5013756;28;20225;-60
2023/07/01 02:03:40;;;;;;;6.25;5.53;;;;;;;16.81;100.00;64733.59;5013462;28;20207;-61
2023/07/01 02:06:05;;;;;;;5.85;5.25;;;;;;;16.74;100.00;64729.53;5013252;28;20501;-60
2023/07/01 02:08:31;;;;;;;5.18;4.68;;;;;;;16.85;100.00;64740.56;5013287;28;20202;-60
2023/07/01 02:10:57;;;;;;;6.63;4.90;;;;;;;16.76;100.00;64728.66;5013139;28;20703;-60
2023/07/01 02:13:23;;;;;;;5.13;4.63;;;;;;;16.72;100.00;64724.78;5013141;28;20211;-62
2023/07/01 02:15:48;;;;;;;5.28;4.78;;;;;;;16.68;100.00;64719.84;5012088;28;20718;-61
2023/07/01 02:18:14;;;;;;;5.97;5.13;;;;;;;16.70;100.00;64720.03;5013187;28;20205;-57
2023/07/01 02:20:39;;;;;;;6.28;5.30;;;;;;;16.77;100.00;64729.72;5013635;28;20213;-61
2023/07/01 02:23:05;;;;;;;6.80;5.28;;;;;;;16.70;100.00;64722.56;5012898;28;20206;-58
2023/07/01 02:25:31;;;;;;;7.32;4.93;;;;;;;16.65;100.00;64717.06;5013282;28;20199;-57
2023/07/01 02:27:56;;;;;;;6.47;4.68;;;;;;;16.64;100.00;64713.41;5013036;28;20207;-56
2023/07/01 02:30:21;;;;;;;5.32;4.82;;;;;;;16.70;100.00;64725.13;5013261;28;20207;-59
2023/07/01 02:32:47;;;;;;;6.05;4.88;;;;;;;16.68;100.00;64722.91;5012892;28;20221;-61
2023/07/01 02:35:12;;;;;;;9.25;5.03;;;;;;;16.71;100.00;64723.13;5012960;28;20341;-61
2023/07/01 02:37:38;;;;;;;5.53;4.90;;;;;;;16.77;100.00;64729.72;5012984;28;20689;-62
2023/07/01 02:40:04;;;;;;;7.90;4.97;;;;;;;16.99;100.00;64755.97;5012875;28;20207;-59
2023/07/01 02:42:30;;;;;;;6.53;4.80;;;;;;;17.05;100.00;64760.56;5012736;28;20218;-59
2023/07/01 02:44:55;;;;;;;7.50;5.50;;;;;;;16.89;100.00;64744.97;5013086;28;20225;-59
2023/07/01 02:47:21;;;;;;;8.27;4.88;;;;;;;16.89;100.00;64745.50;5012961;28;20294;-59
2023/07/01 02:49:46;;;;;;;6.57;5.30;;;;;;;16.93;100.00;64747.34;5013105;28;20211;-62
2023/07/01 02:52:11;;;;;;;5.40;4.90;;;;;;;17.07;100.00;64764.78;5012595;28;20255;-62
2023/07/01 02:54:40;;;;;;;6.60;5.88;;;;;;;17.01;100.00;64755.63;5012694;28;20673;-60
2023/07/01 02:57:10;;;;;;;9.27;5.95;;;;;;;16.95;100.00;64749.03;5012773;28;20211;-60
2023/07/01 02:59:37;;;;;;;5.90;5.03;;;;;;;16.89;100.00;64744.97;5012609;28;20245;-59
2023/07/01 03:02:04;;;;;;;5.10;4.60;;;;;;;16.91;100.00;64747.16;4994917;28;20205;-60
2023/07/01 03:04:30;;;;;;;6.07;5.47;;;;;;;16.99;100.00;64753.44;5012581;28;20213;-59
2023/07/01 03:06:56;;;;;;;7.47;5.43;;;;;;;16.92;100.00;64745.72;5012484;28;20203;-60
2023/07/01 03:09:22;;;;;;;6.35;5.25;;;;;;;16.93;100.00;64747.34;5012507;28;20230;-60
2023/07/01 03:11:47;;;;;;;7.32;4.82;;;;;;;16.56;100.00;64706.63;5012438;28;20280;-60
2023/07/01 03:14:13;;;;;;;7.47;4.93;;;;;;;16.32;100.00;64683.25;5012373;28;20656;-59
2023/07/01 03:16:42;;;;;;;10.68;5.38;;;;;;;16.20;100.00;64667.50;5012242;28;20234;-60
2023/07/01 03:19:08;;;;;;;10.38;5.97;;;;;;;16.15;100.00;64664.56;5012311;28;20213;-59
2023/07/01 03:21:35;;;;;;;8.90;6.13;;;;;;;16.23;100.00;64672.81;4994555;28;20265;-58
2023/07/01 03:24:01;;;;;;;6.65;5.43;;;;;;;16.20;100.00;64669.50;5012072;28;20215;-57
2023/07/01 03:26:27;;;;;;;7.18;5.53;;;;;;;16.22;100.00;64672.25;5012503;28;20265;-58
2023/07/01 03:28:53;;;;;;;8.57;5.85;;;;;;;16.33;100.00;64681.81;5011935;28;20237;-57
2023/07/01 03:31:19;;;;;;;14.93;6.38;;;;;;;16.53;100.00;64706.41;4994466;28;20217;-56
2023/07/01 03:33:45;;;;;;;8.80;6.45;;;;;;;16.45;100.00;64691.94;5012283;28;20285;-57
2023/07/01 03:36:11;;;;;;;11.85;6.68;;;;;;;16.60;100.00;64714.09;5012148;28;20234;-57
2023/07/01 03:38:36;;;;;;;8.80;6.18;;;;;;;16.84;100.00;64740.00;5012056;28;20257;-56
2023/07/01 03:41:02;;;;;;;10.23;6.60;;;;;;;17.08;100.00;64766.44;5011984;28;20217;-60
2023/07/01 03:43:28;;;;;;;12.25;6.32;;;;;;;16.99;100.00;64755.97;4994376;28;20693;-59
2023/07/01 03:45:55;;;;;;;12.10;7.25;;;;;;;16.80;100.00;64735.59;5011899;28;20201;-59
2023/07/01 03:48:21;;;;;;;10.35;6.53;;;;;;;17.12;100.00;64770.28;5011890;28;20225;-59
2023/07/01 03:50:46;;;;;;;11.50;6.30;;;;;;;17.27;100.00;64789.91;5012155;28;20194;-59
2023/07/01 03:53:11;;;;;;;9.25;6.75;;;;;;;17.10;100.00;64763.00;5011619;28;20211;-59
2023/07/01 03:55:37;;;;;;;11.13;7.43;;;;;;;17.12;100.00;64770.28;5012028;28;20203;-58
2023/07/01 03:58:04;;;;;;;7.78;6.50;;;;;;;17.36;100.00;64794.19;4994138;28;20632;-60
2023/07/01 04:00:29;;;;;;;8.88;5.82;;;;;;;17.39;100.00;64798.03;5011398;28;20209;-60
2023/07/01 04:02:54;;;;;;;11.25;6.32;;;;;;;17.25;100.00;64784.63;5011502;28;20218;-59
2023/07/01 04:05:20;;;;;;;7.45;6.05;;;;;;;17.36;100.00;64797.28;5011465;28;20226;-59
2023/07/01 04:07:48;;;;;;;8.40;6.68;;;;;;;17.33;100.00;64793.97;5011492;28;20230;-60
2023/07/01 04:10:13;;;;;;;9.93;6.82;;;;;;;17.12;100.00;64767.75;5011632;28;20207;-62
2023/07/01 04:12:40;;;;;;;7.05;6.03;;;;;;;17.11;100.00;64764.09;5011356;28;20210;-63
2023/07/01 04:15:09;;;;;;;6.72;5.70;;;;;;;16.91;100.00;64745.16;5011718;28;20636;-57
2023/07/01 04:17:44;;;;;;;8.85;5.70;;;;;;;16.90;100.00;64744.06;5011322;28;20345;-57
2023/07/01 04:20:11;;;;;;;9.43;5.78;;;;;;;16.94;100.00;64751.00;5011584;28;20284;-58
2023/07/01 04:22:37;;;;;;;7.70;6.70;;;;;;;17.01;100.00;64758.19;5011532;28;20223;-58
2023/07/01 04:25:03;;;;;;;6.70;5.18;;;;;;;17.19;100.00;64776.00;5011455;28;20213;-59
2023/07/01 04:27:29;;;;;;;6.97;6.13;;;;;;;17.18;100.00;64774.34;5011451;28;20226;-58
2023/07/01 04:29:55;;;;;;;8.20;6.35;;;;;;;17.12;100.00;64767.75;5011349;28;20207;-62
2023/07/01 04:32:21;;;;;;;8.13;5.97;;;;;;;17.48;100.00;64807.41;5011097;28;20244;-62
2023/07/01 04:34:46;;;;;;;6.90;5.88;;;;;;;17.46;100.00;64808.31;5011318;28;20613;-62
2023/07/01 04:37:11;;;;;;;9.63;6.68;;;;;;;17.46;100.00;64805.19;5011161;28;20255;-63
2023/07/01 04:39:37;;;;;;;12.57;7.03;;;;;;;17.42;100.00;64798.81;5010306;28;20521;-62
2023/07/01 04:42:02;;;;;;;10.07;6.63;;;;;;;17.54;100.00;64814.59;5011003;28;20199;-61
2023/07/01 04:44:28;;;;;;;9.77;6.32;;;;;;;17.48;100.00;64807.97;5011053;28;20222;-63
2023/07/01 04:46:53;;;;;;;9.05;6.97;;;;;;;17.48;100.00;64804.84;5011034;28;20700;-63
2023/07/01 04:49:19;;;;;;;11.80;7.60;;;;;;;17.60;100.00;64821.19;5010966;28;20210;-62
2023/07/01 04:51:44;;;;;;;8.15;6.68;;;;;;;17.44;100.00;64806.09;5011039;28;20257;-58
2023/07/01 04:54:10;;;;;;;8.57;6.93;;;;;;;17.66;100.00;64829.81;5011067;28;20206;-57
2023/07/01 04:56:36;;;;;;;6.70;5.97;;;;;;;17.84;100.00;64846.53;5011297;28;20234;-62
2023/07/01 04:59:02;;;;;;;8.85;6.00;;;;;;;17.79;100.00;64841.59;5010853;28;20723;-59
2023/07/01 05:01:27;;;;;;;6.70;6.00;;;;;;;17.78;100.00;64840.50;5010935;28;20198;-59
2023/07/01 05:03:53;;;;;;;8.38;6.22;;;;;;;17.83;100.00;64845.44;5010679;28;20230;-60
2023/07/01 05:06:18;;;;;;;6.78;5.05;;;;;;;17.97;98.21;64858.91;5010922;28;20199;-60
2023/07/01 05:08:44;;;;;;;5.60;5.00;;;;;;;17.86;95.69;64849.31;5010860;28;20597;-60
2023/07/01 05:11:10;;;;;;;5.93;5.32;;;;;;;17.76;97.42;64835.19;5011136;28;20207;-61
2023/07/01 05:13:35;;;;;;;5.43;4.93;;;;;;;17.87;100.00;64850.41;5010954;28;20238;-60
2023/07/01 05:16:01;;;;;;;5.80;5.22;;;;;;;18.01;100.00;64865.84;5011006;28;20586;-61
2023/07/01 05:18:26;;;;;;;5.78;5.18;;;;;;;18.35;100.00;64902.78;5011017;28;20206;-57
2023/07/01 05:20:52;;;;;;;4.90;4.32;;;;;;;18.46;93.29;64911.84;5011154;28;20692;-56
2023/07/01 05:23:17;;;;;;;6.45;4.90;;;;;;;18.33;93.42;64901.13;5010860;28;20696;-60
2023/07/01 05:25:43;;;;;;;5.32;4.78;;;;;;;18.19;93.77;64885.16;5011260;28;20211;-60
2023/07/01 05:28:08;;;;;;;6.53;5.25;;;;;;;18.02;97.33;64871.50;5010865;28;20608;-58
2023/07/01 05:30:34;;;;;;;7.00;4.82;;;;;;;18.11;100.00;64876.31;5011085;28;20199;-59
2023/07/01 05:32:59;;;;;;;5.40;4.90;;;;;;;18.23;95.59;64890.13;5010502;28;20640;-57
2023/07/01 05:35:25;;;;;;;6.55;4.95;;;;;;;18.11;97.82;64876.88;5010807;28;20245;-57
2023/07/01 05:37:52;;;;;;;5.60;5.07;;;;;;;18.23;100.00;64890.13;5010587;28;20247;-57
2023/07/01 05:40:18;;;;;;;6.82;4.90;;;;;;;18.80;100.00;64951.91;5010838;28;20265;-57
2023/07/01 05:42:45;;;;;;;11.07;7.35;;;;;;;19.38;100.00;65015.94;5010471;28;20206;-61
2023/07/01 05:45:11;;;;;;;10.38;6.32;;;;;;;19.84;100.00;65064.16;5010990;28;20203;-62
2023/07/01 05:47:37;;;;;;;5.50;5.00;;;;;;;19.84;98.08;65069.28;5009891;28;20587;-61
2023/07/01 05:50:03;;;;;;;6.13;4.78;;;;;;;19.90;91.08;65075.91;5010369;28;20218;-61
2023/07/01 05:52:28;;;;;;;5.32;4.82;;;;;;;19.90;86.76;65070.78;5012275;28;20215;-61
2023/07/01 05:54:54;;;;;;;4.97;4.50;;;;;;;19.78;86.07;65064.66;5014115;28;20696;-60
2023/07/01 05:57:19;;;;;;;6.95;4.78;;;;;;;19.50;90.21;65028.63;5013871;28;20195;-56
2023/07/01 05:59:44;;;;;;;5.30;4.80;;;;;;;19.47;90.50;65028.44;4996061;28;20207;-56
2023/07/01 06:02:10;;;;;;;9.02;5.15;;;;;;;19.62;84.88;65039.31;5013353;28;20191;-58
2023/07/01 06:04:35;;;;;;;4.97;4.47;;;;;;;19.37;87.69;65014.84;5013576;28;20576;-57
2023/07/01 06:07:01;;;;;;;6.95;5.07;;;;;;;19.43;89.29;65021.47;5013021;28;20210;-57
2023/07/01 06:09:26;;;;;;;6.25;4.95;;;;;;;19.46;87.59;65024.22;5013307;28;20238;-57
2023/07/01 06:11:52;;;;;;;7.88;4.68;;;;;;;19.55;85.40;65032.16;5013467;28;20218;-60
2023/07/01 06:14:18;;;;;;;6.82;5.00;;;;;;;19.60;91.91;65039.66;5013103;28;20250;-59
2023/07/01 06:16:44;;;;;;;6.05;5.18;;;;;;;19.95;87.74;65075.78;5013435;28;20195;-61
2023/07/01 06:19:09;;;;;;;5.10;4.60;;;;;;;20.02;86.04;65084.06;4995927;28;20205;-59
2023/07/01 06:21:35;;;;;;;5.55;4.30;;;;;;;20.28;85.20;65114.25;4995496;28;20211;-60
2023/07/01 06:24:00;;;;;;;6.15;5.07;;;;;;;20.23;87.86;65106.72;4995475;28;20307;-56
2023/07/01 06:26:26;;;;;;;8.63;5.07;;;;;;;20.24;84.01;65112.41;5012846;28;20206;-62
2023/07/01 06:28:51;;;;;;;6.45;5.63;;;;;;;20.35;86.04;65119.41;5012069;28;20245;-62
2023/07/01 06:31:17;;;;;;;5.80;5.20;;;;;;;20.66;88.42;65156.25;5013442;28;20211;-62
2023/07/01 06:33:43;;;;;;;7.30;5.43;;;;;;;20.73;87.15;65164.53;5013022;28;20214;-57
2023/07/01 06:36:08;;;;;;;8.05;6.72;;;;;;;21.04;81.88;65197.72;5013392;28;20237;-58
2023/07/01 06:38:34;;;;;;;10.75;6.68;;;;;;;20.95;82.10;65188.31;5013123;28;20670;-57
2023/07/01 06:41:00;;;;;;;5.72;5.20;;;;;;;20.92;77.99;65182.44;5013233;28;20202;-62
2023/07/01 06:43:25;;;;;;;5.55;4.97;;;;;;;20.85;77.13;65175.25;5012918;28;20286;-62
2023/07/01 06:45:50;;;;;;;6.63;5.43;;;;;;;20.60;81.94;65147.06;5013112;28;20210;-58
2023/07/01 06:48:16;;;;;;;6.00;4.60;;;;;;;20.55;83.18;65141.53;5012947;28;20207;-58
2023/07/01 06:50:41;;;;;;;6.32;5.15;;;;;;;20.50;83.64;65138.56;5012981;28;20667;-58
2023/07/01 06:53:07;;;;;;;6.85;5.30;;;;;;;20.46;82.79;65134.69;5012626;28;20622;-58
2023/07/01 06:55:33;;;;;;;8.80;6.28;;;;;;;20.42;84.99;65127.16;5012962;28;20539;-58
2023/07/01 06:58:02;;;;;;;6.82;5.35;;;;;;;20.38;83.59;65125.31;5012878;28;20210;-59
2023/07/01 07:00:29;;;;;;;6.85;5.75;;;;;;;20.71;82.52;65159.75;5012915;28;20256;-59
2023/07/01 07:02:54;;;;;;;9.38;5.82;;;;;;;20.53;80.63;65136.75;5012140;28;20724;-62
2023/07/01 07:05:20;;;;;;;32.35;23.35;;;;;;;20.59;85.03;65148.50;5012830;28;20337;-62
2023/07/01 07:07:46;;;;;;;10.82;9.00;;;;;;;20.75;83.81;65164.19;5012458;28;20210;-61
2023/07/01 07:10:11;;;;;;;7.72;6.15;;;;;;;20.81;81.59;65172.81;5012785;28;20308;-62
2023/07/01 07:12:37;;;;;;;7.82;6.50;;;;;;;20.82;82.47;65173.94;5012548;28;20724;-61
2023/07/01 07:15:03;;;;;;;6.75;5.88;;;;;;;21.08;82.00;65197.03;5012725;28;20206;-62
2023/07/01 07:17:28;;;;;;;8.45;6.63;;;;;;;21.16;79.75;65211.53;5012213;28;20663;-62
2023/07/01 07:19:54;;;;;;;6.53;5.90;;;;;;;21.23;79.31;65214.16;5012618;28;20292;-62
2023/07/01 07:22:20;;;;;;;9.25;6.10;;;;;;;21.16;80.31;65208.97;5012302;28;20210;-62
2023/07/01 07:24:46;;;;;;;7.90;6.32;;;;;;;21.05;82.24;65199.38;5012365;28;20194;-63
2023/07/01 07:27:11;;;;;;;10.27;7.22;;;;;;;21.34;81.36;65230.91;5012275;28;20202;-60
2023/07/01 07:29:37;;;;;;;7.75;6.70;;;;;;;21.49;80.18;65244.94;5012450;28;20211;-61
2023/07/01 07:32:03;;;;;;;6.68;5.80;;;;;;;21.56;79.18;65253.22;5012346;28;20222;-60
2023/07/01 07:34:28;;;;;;;7.60;5.88;;;;;;;21.64;81.55;65262.06;5011996;28;20241;-61
2023/07/01 07:36:54;;;;;;;9.43;6.10;;;;;;;21.77;81.64;65279.00;5010828;28;20613;-62
2023/07/01 07:39:19;;;;;;;9.57;6.97;;;;;;;21.84;81.76;65285.66;5011810;28;20692;-57
2023/07/01 07:41:45;;;;;;;9.45;7.03;;;;;;;21.71;80.60;65272.38;5011349;28;20281;-57
2023/07/01 07:44:11;;;;;;;10.45;6.72;;;;;;;21.75;77.68;65274.22;5011141;28;20211;-57
2023/07/01 07:46:38;;;;;;;8.52;6.80;;;;;;;21.52;77.77;65248.78;5011873;28;20761;-57
2023/07/01 07:49:04;;;;;;;14.63;6.32;;;;;;;21.71;79.57;65269.81;5009540;28;20657;-58
2023/07/01 07:51:37;;;;;;;11.38;8.55;;;;;;;21.97;78.47;65297.50;5011799;28;20198;-57
2023/07/01 07:54:02;;;;;;;9.75;7.10;;;;;;;21.96;80.95;65299.50;5010307;28;20268;-57
2023/07/01 07:56:28;;;;;;;10.35;7.03;;;;;;;22.00;82.67;65301.38;5012220;28;20625;-58
2023/07/01 07:58:53;;;;;;;10.00;7.28;;;;;;;22.13;82.39;65317.78;4993071;28;20285;-57
2023/07/01 08:01:19;;;;;;;13.48;6.93;;;;;;;22.21;81.28;65324.63;5012025;28;20202;-58
2023/07/01 08:03:44;;;;;;;9.80;7.40;;;;;;;22.28;80.24;65329.25;5011605;28;20216;-62
2023/07/01 08:06:10;;;;;;;8.10;6.45;;;;;;;22.25;76.70;65328.47;5009756;28;20244;-62
2023/07/01 08:08:35;;;;;;;10.60;6.90;;;;;;;22.54;77.14;65361.13;5011024;28;20214;-57
2023/07/01 08:11:01;;;;;;;12.65;7.80;;;;;;;22.91;79.23;65401.56;5011634;28;20218;-57
2023/07/01 08:13:27;;;;;;;10.00;6.60;;;;;;;22.77;80.51;65385.50;5010572;28;20237;-59
2023/07/01 08:15:53;;;;;;;8.10;6.82;;;;;;;22.82;78.52;65391.63;5009020;28;20669;-57
2023/07/01 08:18:18;;;;;;;9.70;6.65;;;;;;;22.99;78.25;65409.88;5011005;28;20206;-59
2023/07/01 08:20:45;;;;;;;8.70;6.20;;;;;;;23.22;77.11;65435.38;5010372;28;20217;-57
2023/07/01 08:23:11;;;;;;;10.05;7.55;;;;;;;23.21;79.13;65434.25;5010863;28;20264;-58
2023/07/01 08:25:39;;;;;;;9.50;6.47;;;;;;;23.27;76.59;65440.91;5011522;28;20222;-64
2023/07/01 08:28:05;;;;;;;10.98;6.25;;;;;;;23.23;73.98;65437.03;5011462;28;20305;-62
2023/07/01 08:30:30;;;;;;;8.30;5.63;;;;;;;23.30;71.35;65444.22;5011437;28;20289;-62
2023/07/01 08:32:56;;;;;;;7.68;5.72;;;;;;;23.29;70.85;65440.56;5010904;28;20229;-58
2023/07/01 08:35:21;;;;;;;7.10;5.93;;;;;;;23.30;69.47;65444.22;5011426;28;20211;-58
2023/07/01 08:37:52;;;;;;;6.60;5.88;;;;;;;23.57;70.04;65471.59;5011315;28;20213;-58
2023/07/01 08:40:18;;;;;;;11.68;5.72;;;;;;;23.76;67.07;65494.66;5011023;28;20213;-58
2023/07/01 08:42:48;;;;;;;9.65;5.47;;;;;;;23.65;65.94;65479.91;5011041;28;20218;-59
2023/07/01 08:45:14;;;;;;;8.60;5.78;;;;;;;23.71;62.77;65489.13;5010556;28;20211;-61
2023/07/01 08:47:40;;;;;;;5.85;5.00;;;;;;;23.85;63.69;65504.66;5011095;28;20207;-59
2023/07/01 08:50:07;;;;;;;8.60;5.10;;;;;;;23.86;68.39;65503.72;5011230;28;20206;-58
2023/07/01 08:52:44;;;;;;;6.30;5.70;;;;;;;23.99;71.23;65520.16;5010944;28;20218;-60
2023/07/01 08:55:11;;;;;;;8.55;6.65;;;;;;;23.96;69.92;65514.25;5011029;28;20604;-58
2023/07/01 08:57:41;;;;;;;8.65;5.55;;;;;;;24.12;63.66;65537.72;5010975;28;20222;-60
2023/07/01 09:00:15;;;;;;;7.57;6.43;;;;;;;24.30;66.68;65554.53;5010784;28;20268;-59
2023/07/01 09:02:41;;;;;;;6.32;4.78;;;;;;;24.51;66.79;65577.84;5010959;28;20691;-58
2023/07/01 09:05:07;;;;;;;6.43;5.38;;;;;;;24.39;65.25;65563.97;5011290;28;20229;-58
2023/07/01 09:07:33;;;;;;;7.65;4.93;;;;;;;24.56;63.70;65583.41;5010856;28;20217;-62
2023/07/01 09:10:03;;;;;;;5.30;4.80;;;;;;;24.72;65.13;65603.16;5010745;28;20211;-62
2023/07/01 09:12:31;;;;;;;7.78;4.88;;;;;;;24.84;59.95;65611.91;5010685;28;20225;-57
2023/07/01 09:14:58;;;;;;;6.70;4.43;;;;;;;24.92;61.63;65620.22;5009984;28;20217;-58
2023/07/01 09:17:32;;;;;;;5.78;5.10;;;;;;;25.02;64.10;65633.31;5010867;28;20208;-57
2023/07/01 09:20:00;;;;;;;7.97;4.40;;;;;;;24.91;59.16;65621.69;5011007;28;20205;-62
2023/07/01 09:22:26;;;;;;;5.82;5.22;;;;;;;25.07;62.68;65636.31;4992930;28;20261;-63
2023/07/01 09:24:51;;;;;;;5.63;5.07;;;;;;;25.23;62.67;65654.06;5010899;28;20214;-63
2023/07/01 09:27:17;;;;;;;7.82;4.78;;;;;;;25.32;60.70;65667.19;5014215;28;20195;-58
2023/07/01 09:29:42;;;;;;;8.88;5.10;;;;;;;25.38;60.11;65671.25;5013975;28;20203;-59
2023/07/01 09:32:08;;;;;;;7.38;5.55;;;;;;;25.61;65.07;65696.25;5013639;28;20229;-58
2023/07/01 09:34:57;;;;;;;7.35;5.75;;;;;;;25.86;62.85;65726.03;5013836;28;20260;-58
2023/07/01 09:37:26;;;;;;;7.75;5.57;;;;;;;25.90;62.40;65731.03;5014129;28;20207;-58
2023/07/01 09:39:52;;;;;;;8.13;5.15;;;;;;;25.99;64.13;65738.44;5013869;28;20653;-58
2023/07/01 09:42:25;;;;;;;7.38;5.25;;;;;;;26.13;63.79;65759.19;5013908;28;20199;-57
2023/07/01 09:45:08;;;;;;;5.05;4.57;;;;;;;26.36;60.34;65781.59;5013635;28;20210;-58
2023/07/01 09:47:34;;;;;;;8.82;7.20;;;;;;;26.24;59.16;65765.69;5013213;28;20580;-59
2023/07/01 09:50:01;;;;;;;10.27;5.82;;;;;;;26.36;61.08;65781.59;5012643;28;20215;-60
2023/07/01 09:52:34;;;;;;;6.18;4.70;;;;;;;26.65;57.04;65813.81;5013378;28;20222;-59
2023/07/01 09:55:03;;;;;;;5.15;4.63;;;;;;;26.48;55.82;65794.94;5013773;28;20207;-60
2023/07/01 09:57:30;;;;;;;6.00;4.80;;;;;;;26.71;59.74;65819.91;5013315;28;20760;-60
2023/07/01 09:59:56;;;;;;;6.45;5.25;;;;;;;26.62;62.15;65811.03;5013447;28;20210;-59
2023/07/01 10:02:27;;;;;;;7.50;5.68;;;;;;;26.91;61.62;65839.56;5013526;28;20194;-60
2023/07/01 10:04:53;;;;;;;6.25;4.90;;;;;;;27.13;57.73;65864.59;5013271;28;20297;-59
2023/07/01 10:07:18;;;;;;;8.85;5.32;;;;;;;27.36;56.33;65887.03;5013357;28;20277;-60
2023/07/01 10:09:45;;;;;;;6.63;5.57;;;;;;;27.48;57.90;65902.97;5013472;28;20301;-59
2023/07/01 10:12:13;;;;;;;7.07;5.38;;;;;;;27.20;56.25;65874.41;5013161;28;20268;-58
2023/07/01 10:14:42;;;;;;;11.48;9.30;;;;;;;27.12;55.23;65862.91;5013437;28;20207;-57
2023/07/01 10:17:07;;;;;;;6.13;4.63;;;;;;;27.54;53.79;65909.63;5013190;28;20283;-58
2023/07/01 10:19:34;;;;;;;4.90;4.40;;;;;;;27.77;54.21;65937.81;5013076;28;20637;-57
2023/07/01 10:22:26;;;;;;;10.32;8.15;;;;;;;27.14;55.29;65863.13;5013250;28;20269;-58
2023/07/01 10:25:02;;;;;;;10.40;9.13;;;;;;;27.19;56.46;65873.31;5013167;28;20657;-57
2023/07/01 10:27:43;;;;;;;6.47;5.32;;;;;;;27.73;55.82;65933.38;4995819;28;20226;-58
2023/07/01 10:30:12;;;;;;;7.53;4.82;;;;;;;28.18;55.24;65980.28;5013017;28;20206;-58
2023/07/01 10:32:39;;;;;;;5.60;5.00;;;;;;;28.45;57.09;66012.94;5012980;28;20313;-62
2023/07/01 10:35:04;;;;;;;7.75;4.80;;;;;;;28.46;55.02;66013.50;5013294;28;20207;-61
2023/07/01 10:37:33;;;;;;;11.93;9.80;;;;;;;27.87;52.82;65948.94;5011572;28;20733;-59
2023/07/01 10:40:02;;;;;;;7.30;4.70;;;;;;;28.47;52.12;66012.00;5013232;28;20210;-59
2023/07/01 10:42:33;;;;;;;7.32;6.47;;;;;;;28.57;54.25;66020.56;5012793;28;20689;-60
2023/07/01 10:45:11;;;;;;;6.13;5.20;;;;;;;28.89;51.51;66058.75;5012846;28;20249;-60
2023/07/01 10:47:46;;;;;;;6.50;5.90;;;;;;;29.13;54.11;66087.53;5012622;28;20249;-61
2023/07/01 10:50:13;;;;;;;6.70;5.22;;;;;;;29.11;50.27;66083.25;5012653;28;20199;-60
2023/07/01 10:52:58;;;;;;;9.25;5.28;;;;;;;29.22;49.80;66097.56;5012441;28;20305;-60
2023/07/01 10:55:39;;;;;;;6.20;5.60;;;;;;;29.43;54.01;66118.91;5012760;28;20233;-59
2023/07/01 10:58:26;;;;;;;6.30;5.45;;;;;;;29.67;53.62;66145.66;5012711;28;20268;-59
2023/07/01 11:00:51;;;;;;;6.15;5.55;;;;;;;29.96;49.84;66177.41;5013028;28;20275;-57
2023/07/01 11:03:35;;;;;;;8.70;5.93;;;;;;;29.29;49.19;66100.72;5012821;28;20215;-57
2023/07/01 11:06:02;;;;;;;9.07;8.18;;;;;;;28.83;51.05;66052.09;5012888;28;20229;-57
2023/07/01 11:08:29;;;;;;;5.70;5.07;;;;;;;28.90;48.37;66057.84;5012750;28;20760;-57
2023/07/01 11:10:54;;;;;;;6.47;5.78;;;;;;;29.23;49.65;66096.63;4979109;28;20333;-58
2023/07/01 11:13:21;;;;;;;6.45;5.63;;;;;;;29.66;51.41;66144.53;5012482;28;20297;-58
2023/07/01 11:16:02;;;;;;;7.30;5.70;;;;;;;29.46;50.69;66121.69;4995016;28;20268;-61
2023/07/01 11:18:46;;;;;;;6.88;6.13;;;;;;;29.96;50.18;66176.88;5012487;28;20719;-55
2023/07/01 11:21:14;;;;;;;7.15;5.90;;;;;;;29.75;50.69;66154.03;5012370;28;20676;-62
2023/07/01 11:23:50;;;;;;;6.43;5.53;;;;;;;29.39;51.99;66114.47;5012324;28;20210;-59
2023/07/01 11:26:24;;;;;;;16.67;10.27;;;;;;;28.59;50.75;66028.53;5012731;28;20660;-62
2023/07/01 11:28:51;;;;;;;5.95;5.15;;;;;;;28.25;50.26;65990.66;5012513;28;20309;-61
2023/07/01 11:31:19;;;;;;;10.38;9.13;;;;;;;28.18;50.85;65980.84;5012330;28;20203;-61